Time;durP1;ratioP1;P1;durP2;ratioP2;P2;SDS_P1;SDS_P2;PMS_P1;PMS_P2;Temp;Humidity;BMP_temperature;BMP_pressure;BME280_temperature;BME280_humidity;BME280_pressure;Samples;Min_cycle;Max_cycle;Signal;HPM_P1;HPM_P2
2020/12/07 05:41:40;;;;;;;23.97;16.63;;;7.00;98.30;;;;;;5059692;23;20971;-82
2020/12/07 05:43:51;;;;;;;24.40;17.23;;;7.00;98.30;;;;;;5075416;23;20808;-81
2020/12/07 05:45:54;;;;;;;25.87;16.87;;;7.10;98.30;;;;;;5075446;23;20471;-82
2020/12/07 05:47:58;;;;;;;24.10;15.83;;;7.10;98.30;;;;;;5075187;23;20442;-82
2020/12/07 05:50:06;;;;;;;26.17;17.17;;;7.00;98.30;;;;;;5067690;23;20460;-81
2020/12/07 05:52:12;;;;;;;23.73;17.30;;;7.10;98.30;;;;;;5067817;23;20460;-82
2020/12/07 05:54:23;;;;;;;24.90;15.60;;;7.10;98.30;;;;;;5077273;23;21005;-83
2020/12/07 05:56:44;;;;;;;23.43;16.63;;;7.10;98.30;;;;;;5077244;23;20466;-81
2020/12/07 05:59:06;;;;;;;24.27;16.87;;;7.00;98.30;;;;;;5077614;23;20450;-82
2020/12/07 06:01:12;;;;;;;26.97;17.70;;;7.10;98.30;;;;;;5078383;23;20969;-82
2020/12/07 06:03:22;;;;;;;27.50;16.60;;;7.10;98.30;;;;;;5076929;23;20559;-82
2020/12/07 06:05:27;;;;;;;28.70;17.93;;;7.10;98.30;;;;;;5068880;23;20455;-82
2020/12/07 06:07:35;;;;;;;24.57;16.60;;;7.10;98.30;;;;;;5078155;23;20458;-83
2020/12/07 06:09:46;;;;;;;21.90;16.30;;;7.10;98.30;;;;;;5077453;23;20466;-83
2020/12/07 06:11:56;;;;;;;23.87;15.50;;;7.10;98.30;;;;;;5078845;23;20433;-82
2020/12/07 06:13:59;;;;;;;23.57;15.40;;;7.10;98.30;;;;;;5069778;23;20429;-83
2020/12/07 06:16:05;;;;;;;21.80;15.73;;;7.10;98.30;;;;;;5078926;23;20559;-81
2020/12/07 06:18:07;;;;;;;21.30;15.33;;;7.10;98.30;;;;;;5078250;23;20430;-81
2020/12/07 06:20:26;;;;;;;24.37;16.00;;;7.10;98.30;;;;;;5078454;23;20451;-82
2020/12/07 06:22:33;;;;;;;22.20;16.37;;;7.10;98.30;;;;;;5078523;23;20783;-83
2020/12/07 06:24:40;;;;;;;23.10;17.77;;;7.20;98.30;;;;;;5078986;23;20422;-82
2020/12/07 06:26:44;;;;;;;20.47;14.87;;;7.20;98.30;;;;;;5078042;23;20502;-81
2020/12/07 06:28:49;;;;;;;24.93;16.60;;;7.20;98.30;;;;;;5069078;23;20517;-82
2020/12/07 06:30:54;;;;;;;28.60;15.97;;;7.20;98.30;;;;;;5077458;23;21010;-82
2020/12/07 06:32:56;;;;;;;28.37;17.33;;;7.20;98.30;;;;;;5077410;23;20421;-83
2020/12/07 06:34:58;;;;;;;22.77;15.27;;;7.20;98.30;;;;;;5078772;23;20430;-83
2020/12/07 06:37:01;;;;;;;21.50;14.83;;;7.20;98.30;;;;;;5071184;23;20456;-83
2020/12/07 06:39:05;;;;;;;23.70;16.37;;;7.10;98.30;;;;;;5078336;23;20452;-83
2020/12/07 06:41:08;;;;;;;26.50;15.83;;;7.10;98.30;;;;;;5071554;23;20520;-79
2020/12/07 06:43:20;;;;;;;23.37;16.17;;;7.20;98.30;;;;;;5078495;23;20427;-83
2020/12/07 06:45:24;;;;;;;23.87;15.20;;;7.20;98.30;;;;;;5080012;23;20493;-81
2020/12/07 06:47:27;;;;;;;19.60;14.97;;;7.20;98.30;;;;;;5083053;23;20439;-82
2020/12/07 06:49:48;;;;;;;21.37;14.87;;;7.20;98.30;;;;;;5077187;23;21017;-82
2020/12/07 06:52:03;;;;;;;24.60;16.83;;;7.20;98.30;;;;;;5077745;23;20451;-83
2020/12/07 06:55:01;;;;;;;25.40;15.83;;;7.30;98.30;;;;;;5078117;23;20450;-83
2020/12/07 06:56:36;;;;;;;24.20;16.50;;;7.30;98.30;;;;;;5078025;23;20487;-83
2020/12/07 06:58:40;;;;;;;20.83;14.80;;;7.40;98.30;;;;;;5078363;23;20450;-83
2020/12/07 07:00:42;;;;;;;22.77;15.57;;;7.40;98.30;;;;;;5076808;23;20455;-82
2020/12/07 07:02:49;;;;;;;20.23;15.10;;;7.30;98.30;;;;;;5079096;23;20483;-81
2020/12/07 07:04:55;;;;;;;21.43;15.70;;;7.30;98.30;;;;;;5080138;23;20913;-83
2020/12/07 07:06:59;;;;;;;24.20;15.30;;;7.30;98.30;;;;;;5080914;23;20456;-82
2020/12/07 07:09:01;;;;;;;22.10;14.83;;;7.40;98.30;;;;;;5080994;23;20456;-81
2020/12/07 07:11:05;;;;;;;18.90;15.13;;;7.40;98.30;;;;;;5071898;23;20438;-83
2020/12/07 07:13:12;;;;;;;23.57;15.57;;;7.40;98.30;;;;;;5080305;23;20452;-82
2020/12/07 07:15:15;;;;;;;24.83;16.00;;;7.50;98.30;;;;;;5077996;23;20433;-81
2020/12/07 07:17:17;;;;;;;20.53;15.80;;;7.50;98.30;;;;;;5078045;23;20935;-82
2020/12/07 07:19:19;;;;;;;21.87;15.83;;;7.50;98.30;;;;;;5077607;23;20531;-83
2020/12/07 07:21:22;;;;;;;22.70;16.10;;;7.50;98.30;;;;;;5078070;23;21006;-83
2020/12/07 07:23:25;;;;;;;18.27;14.00;;;7.50;98.30;;;;;;5078410;23;20422;-82
2020/12/07 07:25:42;;;;;;;19.67;14.93;;;7.50;98.30;;;;;;5077971;23;20943;-80
2020/12/07 07:28:01;;;;;;;22.47;14.93;;;7.50;98.30;;;;;;5077222;23;20823;-81
2020/12/07 07:30:04;;;;;;;25.33;16.33;;;7.50;98.30;;;;;;5069647;23;20969;-82
2020/12/07 07:32:06;;;;;;;20.43;14.93;;;7.60;98.30;;;;;;5077635;23;20452;-82
2020/12/07 07:34:09;;;;;;;35.90;22.73;;;7.60;98.30;;;;;;5077926;23;20993;-82
2020/12/07 07:36:23;;;;;;;19.40;14.57;;;7.60;98.30;;;;;;5077428;23;20455;-82
2020/12/07 07:38:34;;;;;;;23.13;15.07;;;7.70;98.30;;;;;;5077392;23;20510;-82
2020/12/07 07:40:44;;;;;;;24.20;15.20;;;7.70;98.30;;;;;;5076013;23;20764;-82
2020/12/07 07:42:52;;;;;;;20.47;15.50;;;7.70;98.30;;;;;;5083419;23;20503;-82
2020/12/07 07:44:55;;;;;;;20.90;14.63;;;7.70;98.30;;;;;;5071677;23;20467;-82
2020/12/07 07:47:00;;;;;;;21.00;14.70;;;7.70;98.30;;;;;;5077905;23;20448;-82
2020/12/07 07:49:20;;;;;;;18.97;14.17;;;7.70;98.30;;;;;;5078804;23;20455;-83
2020/12/07 07:54:18;;;;;;;20.70;15.70;;;7.70;98.30;;;;;;5083619;23;20423;-82
2020/12/07 08:16:27;;;;;;;25.80;15.63;;;7.80;98.30;;;;;;5059882;23;20456;-83
2020/12/07 08:19:19;;;;;;;26.70;15.73;;;7.80;98.30;;;;;;5067865;23;20511;-83
2020/12/07 08:22:26;;;;;;;23.97;15.80;;;7.80;98.30;;;;;;4978167;23;20464;-82
2020/12/07 08:25:42;;;;;;;22.40;14.37;;;7.80;98.30;;;;;;4917904;23;20476;-82
2020/12/07 08:28:20;;;;;;;21.83;13.83;;;7.80;98.30;;;;;;4970919;23;20444;-82
2020/12/07 08:34:12;;;;;;;;;;;;;;;;;;;;;
2020/12/07 08:36:53;;;;;;;22.40;14.17;;;7.80;98.30;;;;;;5075569;23;20458;-82
2020/12/07 08:39:32;;;;;;;21.90;14.10;;;7.80;98.30;;;;;;5065032;23;20444;-82
2020/12/07 08:44:38;;;;;;;21.47;15.93;;;7.70;98.30;;;;;;5075517;23;20460;-82
2020/12/07 08:47:21;;;;;;;22.70;15.00;;;7.80;98.30;;;;;;5046181;23;20452;-82
2020/12/07 08:50:00;;;;;;;;;;;;;;;;;;;;;
2020/12/07 08:55:19;;;;;;;19.20;14.13;;;7.70;98.30;;;;;;5065719;23;20451;-84
2020/12/07 08:58:42;;;;;;;21.40;14.93;;;7.70;98.30;;;;;;5077528;23;20483;-83
2020/12/07 09:01:11;;;;;;;;;;;;;;;;;;;;;
2020/12/07 09:03:33;;;;;;;23.57;14.63;;;7.70;98.30;;;;;;5051127;23;20448;-82
2020/12/07 09:06:23;;;;;;;23.33;15.20;;;7.70;98.30;;;;;;5076554;23;20532;-82
2020/12/07 09:09:03;;;;;;;;;;;;;;;;;;;;;
2020/12/07 09:11:53;;;;;;;;;;;;;;;;;;;;;
2020/12/07 09:14:52;;;;;;;19.63;14.17;;;7.70;98.30;;;;;;5076278;23;20532;-82
2020/12/07 09:17:29;;;;;;;21.87;15.40;;;7.70;98.30;;;;;;4944064;23;20460;-82
2020/12/07 09:26:25;;;;;;;23.57;15.33;;;7.70;98.30;;;;;;5066840;23;20426;-82
2020/12/07 09:29:02;;;;;;;22.80;16.20;;;7.70;98.30;;;;;;5077773;23;20458;-82
2020/12/07 09:34:55;;;;;;;;;;;;;;;;;;;;;
2020/12/07 09:40:34;;;;;;;24.10;14.83;;;7.70;98.30;;;;;;4938193;23;20478;-83
2020/12/07 09:43:26;;;;;;;20.80;15.20;;;7.60;98.30;;;;;;5070476;23;20458;-83
2020/12/07 09:55:25;;;;;;;;;;;;;;;;;;;;;
2020/12/07 10:04:39;;;;;;;;;;;;;;;;;;;;;
2020/12/07 10:07:30;;;;;;;21.87;14.80;;;7.80;98.30;;;;;;5071044;23;20983;-81
2020/12/07 10:13:26;;;;;;;;;;;;;;;;;;;;;
2020/12/07 10:15:56;;;;;;;23.40;16.10;;;7.60;98.30;;;;;;5078505;23;20449;-81
2020/12/07 10:18:22;;;;;;;27.30;18.10;;;7.50;98.30;;;;;;5069697;23;20456;-81
2020/12/07 10:21:28;;;;;;;23.23;16.70;;;7.40;98.30;;;;;;4972365;23;20451;-81
2020/12/07 10:23:58;;;;;;;24.80;17.50;;;7.40;98.30;;;;;;4970386;23;20437;-81
2020/12/07 10:26:34;;;;;;;30.10;19.80;;;7.40;98.30;;;;;;4963287;23;20536;-81
2020/12/07 10:28:49;;;;;;;28.40;18.37;;;7.40;98.30;;;;;;4979944;23;20451;-82
2020/12/07 10:31:40;;;;;;;;;;;;;;;;;;;;;
2020/12/07 10:34:33;;;;;;;31.37;20.43;;;7.30;98.30;;;;;;4902898;24;20558;-82
2020/12/07 10:37:14;;;;;;;;;;;;;;;;;;;;;
2020/12/07 10:40:02;;;;;;;29.20;19.80;;;7.20;98.30;;;;;;4963785;23;20459;-82
2020/12/07 10:42:41;;;;;;;28.90;19.70;;;7.20;98.30;;;;;;4968394;23;20459;-82
2020/12/07 10:45:13;;;;;;;30.77;19.57;;;7.30;98.30;;;;;;4980534;23;20846;-82
2020/12/07 10:47:52;;;;;;;;;;;;;;;;;;;;;
2020/12/07 10:50:37;;;;;;;;;;;;;;;;;;;;;
2020/12/07 11:02:39;;;;;;;;;;;;;;;;;;;;;
2020/12/07 11:05:19;;;;;;;30.57;19.10;;;7.10;98.30;;;;;;5041539;23;20452;-82
2020/12/07 11:07:48;;;;;;;;;;;;;;;;;;;;;
2020/12/07 11:18:58;;;;;;;33.00;19.97;;;7.00;98.30;;;;;;5032008;23;20455;-82
2020/12/07 11:21:54;;;;;;;30.80;19.10;;;7.00;98.30;;;;;;5018571;23;20449;-82
2020/12/07 11:24:56;;;;;;;29.73;19.10;;;6.90;98.30;;;;;;5025686;23;20515;-82
2020/12/07 11:27:20;;;;;;;31.70;21.90;;;6.90;98.30;;;;;;5053241;23;20456;-81
2020/12/07 11:30:31;;;;;;;27.60;19.50;;;6.80;98.30;;;;;;5043285;23;20480;-81
2020/12/07 11:33:01;;;;;;;29.87;18.90;;;6.70;98.30;;;;;;4933629;24;20554;-81
